createdAt,value
2022-08-27T00:03:14.372Z,52.49
2022-08-27T00:08:15.982Z,52.37
2022-08-27T00:13:18.259Z,52.45
2022-08-27T00:18:22.713Z,52.26
2022-08-27T00:23:24.651Z,52.60
2022-08-27T00:28:28.177Z,52.40
2022-08-27T00:33:30.720Z,53.14
2022-08-27T00:38:32.373Z,53.17
2022-08-27T00:44:03.950Z,53.33
2022-08-27T00:49:10.211Z,53.28
2022-08-27T00:54:17.352Z,53.32
2022-08-27T00:59:23.523Z,53.51
2022-08-27T01:04:25.164Z,53.59
2022-08-27T01:09:27.343Z,53.62
2022-08-27T01:14:30.469Z,54.07
2022-08-27T01:19:38.086Z,53.88
2022-08-27T01:24:46.866Z,53.90
2022-08-27T01:29:50.481Z,54.02
2022-08-27T01:34:52.652Z,54.01
2022-08-27T01:39:57.035Z,54.52
2022-08-27T01:45:05.916Z,55.21
2022-08-27T01:50:17.911Z,55.24
2022-08-27T01:55:22.042Z,55.57
2022-08-27T02:00:29.868Z,55.80
2022-08-27T02:05:31.847Z,55.46
2022-08-27T02:10:48.028Z,56.19
2022-08-27T02:15:49.927Z,56.39
2022-08-27T02:20:51.715Z,56.32
2022-08-27T02:25:53.986Z,56.31
2022-08-27T02:30:55.690Z,56.64
2022-08-27T02:35:57.395Z,56.74
2022-08-27T02:40:59.029Z,57.11
2022-08-27T02:46:01.629Z,57.12
2022-08-27T02:51:05.274Z,57.14
2022-08-27T02:56:07.436Z,57.12
2022-08-27T03:01:11.369Z,57.49
2022-08-27T03:06:15.647Z,57.88
2022-08-27T03:11:17.333Z,58.13
2022-08-27T03:16:19.495Z,57.87
2022-08-27T03:21:24.332Z,57.87
2022-08-27T03:26:25.995Z,57.69
2022-08-27T03:31:29.429Z,57.76
2022-08-27T03:36:31.709Z,57.39
2022-08-27T03:41:54.348Z,57.18
2022-08-27T03:46:55.319Z,57.07
2022-08-27T03:51:57.006Z,56.85
2022-08-27T03:56:58.644Z,56.67
2022-08-27T04:02:01.903Z,56.36
2022-08-27T04:07:03.780Z,56.36
2022-08-27T04:12:05.815Z,56.60
2022-08-27T04:17:07.494Z,56.69
2022-08-27T04:22:09.595Z,56.87
2022-08-27T04:27:11.508Z,56.65
2022-08-27T04:32:13.268Z,56.20
2022-08-27T04:37:14.931Z,55.95
2022-08-27T04:42:23.440Z,56.19
2022-08-27T04:47:25.045Z,56.24
2022-08-27T04:52:26.743Z,56.07
2022-08-27T04:57:28.411Z,56.11
2022-08-27T05:02:30.030Z,55.92
2022-08-27T05:07:31.642Z,55.77
2022-08-27T05:12:33.258Z,55.57
2022-08-27T05:17:34.858Z,56.11
2022-08-27T05:22:36.497Z,55.76
2022-08-27T05:27:38.164Z,55.43
2022-08-27T05:32:39.888Z,55.50
2022-08-27T05:37:41.511Z,55.77
2022-08-27T05:42:43.248Z,55.41
2022-08-27T05:47:51.775Z,55.63
2022-08-27T05:52:53.669Z,55.94
2022-08-27T05:57:55.291Z,56.10
2022-08-27T06:02:57.074Z,55.79
2022-08-27T06:07:58.739Z,56.09
2022-08-27T06:13:00.382Z,56.09
2022-08-27T06:18:02.007Z,56.04
2022-08-27T06:23:03.636Z,56.18
2022-08-27T06:28:06.673Z,56.17
2022-08-27T06:33:09.205Z,56.00
2022-08-27T06:38:11.018Z,56.01
2022-08-27T06:43:12.810Z,56.46
2022-08-27T06:48:14.860Z,56.07
2022-08-27T06:53:16.469Z,56.04
2022-08-27T06:58:19.913Z,55.95
2022-08-27T07:03:21.527Z,55.35
2022-08-27T07:08:23.134Z,55.24
2022-08-27T07:13:25.171Z,55.18
2022-08-27T07:18:27.296Z,54.54
2022-08-27T07:23:30.573Z,53.97
2022-08-27T07:28:32.461Z,53.95
2022-08-27T07:33:34.068Z,53.50
2022-08-27T07:38:36.717Z,53.37
2022-08-27T07:43:57.413Z,52.80
2022-08-27T07:48:59.255Z,52.10
2022-08-27T07:54:00.939Z,52.04
2022-08-27T07:59:02.629Z,51.81
2022-08-27T08:04:04.489Z,50.73
2022-08-27T08:09:07.075Z,49.76
2022-08-27T08:14:12.959Z,49.33
2022-08-27T08:19:15.548Z,48.09
2022-08-27T08:24:17.788Z,47.49
2022-08-27T08:29:19.383Z,47.05
2022-08-27T08:34:21.044Z,45.97
2022-08-27T08:39:24.299Z,45.07
2022-08-27T08:44:49.586Z,44.01
2022-08-27T08:49:51.134Z,44.14
2022-08-27T08:54:59.464Z,43.50
2022-08-27T09:00:07.686Z,43.32
2022-08-27T09:05:09.877Z,44.01
2022-08-27T09:10:33.657Z,44.01
2022-08-27T09:15:36.713Z,44.03
2022-08-27T09:20:40.566Z,43.95
2022-08-27T09:25:44.865Z,43.30
2022-08-27T09:30:46.606Z,43.28
2022-08-27T09:35:49.387Z,42.80
2022-08-27T09:40:52.808Z,43.01
2022-08-27T09:46:19.937Z,42.32
2022-08-27T09:51:25.771Z,41.87
2022-08-27T09:56:36.307Z,41.66
2022-08-27T10:02:12.087Z,41.42
2022-08-27T10:07:44.200Z,40.39
2022-08-27T10:13:10.226Z,40.05
2022-08-27T10:18:19.584Z,39.94
2022-08-27T10:23:30.412Z,40.16
2022-08-27T10:28:54.624Z,40.12
2022-08-27T10:34:15.020Z,39.48
2022-08-27T10:39:40.872Z,39.02
2022-08-27T10:44:48.641Z,39.14
2022-08-27T10:50:04.007Z,38.86
2022-08-27T10:55:14.516Z,39.41
2022-08-27T11:00:22.440Z,39.18
2022-08-27T11:05:31.395Z,38.51
2022-08-27T11:10:43.434Z,37.92
2022-08-27T11:15:49.948Z,38.95
2022-08-27T11:20:59.987Z,40.04
2022-08-27T11:26:04.969Z,40.37
2022-08-27T11:31:19.660Z,40.41
2022-08-27T11:36:58.679Z,40.44
2022-08-27T11:42:05.372Z,39.35
2022-08-27T11:47:14.609Z,38.76
2022-08-27T11:52:37.519Z,38.13
2022-08-27T11:57:40.283Z,38.15
2022-08-27T12:02:41.998Z,38.65
2022-08-27T12:07:50.650Z,39.17
2022-08-27T12:13:22.375Z,39.39
2022-08-27T12:18:44.501Z,38.92
2022-08-27T12:24:12.243Z,38.25
2022-08-27T12:29:46.878Z,38.49
2022-08-27T12:34:59.667Z,38.85
2022-08-27T12:40:09.182Z,39.58
2022-08-27T12:45:19.774Z,40.01
2022-08-27T12:50:26.312Z,39.29
2022-08-27T12:56:03.008Z,38.97
2022-08-27T13:01:29.274Z,38.42
2022-08-27T13:06:34.454Z,38.37
2022-08-27T13:11:46.692Z,38.21
2022-08-27T13:16:59.553Z,38.38
2022-08-27T13:22:05.136Z,38.40
2022-08-27T13:27:06.850Z,38.49
2022-08-27T13:32:09.355Z,38.44
2022-08-27T13:37:27.625Z,38.30
2022-08-27T13:42:31.694Z,39.09
2022-08-27T13:47:45.325Z,39.51
2022-08-27T13:53:06.159Z,39.86
2022-08-27T13:58:19.540Z,39.85
2022-08-27T14:03:34.042Z,40.28
2022-08-27T14:08:36.248Z,40.36
2022-08-27T14:13:41.217Z,40.28
2022-08-27T14:19:06.653Z,40.28
2022-08-27T14:24:08.843Z,40.51
2022-08-27T14:29:11.778Z,40.37
2022-08-27T14:34:14.691Z,40.59
2022-08-27T14:39:16.404Z,40.14
2022-08-27T14:44:18.302Z,39.77
2022-08-27T14:49:29.812Z,39.20
2022-08-27T14:54:33.420Z,39.33
2022-08-27T14:59:36.284Z,39.16
2022-08-27T15:04:38.570Z,39.13
2022-08-27T15:09:40.558Z,38.97
2022-08-27T15:14:45.839Z,39.01
2022-08-27T15:19:47.563Z,38.98
2022-08-27T15:24:53.487Z,38.63
2022-08-27T15:29:55.296Z,39.14
2022-08-27T15:34:58.532Z,38.92
2022-08-27T15:40:01.449Z,39.04
2022-08-27T15:45:03.863Z,39.19
2022-08-27T15:50:06.493Z,39.27
2022-08-27T15:55:22.402Z,38.74
2022-08-27T16:00:24.836Z,39.36
2022-08-27T16:05:30.556Z,39.96
2022-08-27T16:10:32.223Z,40.31
2022-08-27T16:15:36.127Z,40.45
2022-08-27T16:20:37.861Z,41.28
2022-08-27T16:25:40.431Z,40.81
2022-08-27T16:30:42.893Z,40.29
2022-08-27T16:35:44.588Z,40.35
2022-08-27T16:40:52.108Z,40.26
2022-08-27T16:45:56.217Z,40.26
2022-08-27T16:50:59.029Z,40.54
2022-08-27T16:56:00.964Z,40.40
2022-08-27T17:01:07.520Z,40.54
2022-08-27T17:06:13.592Z,40.76
2022-08-27T17:11:19.526Z,40.85
2022-08-27T17:16:24.911Z,41.16
2022-08-27T17:21:30.107Z,41.22
2022-08-27T17:26:32.929Z,41.55
2022-08-27T17:31:37.630Z,41.95
2022-08-27T17:36:39.244Z,42.06
2022-08-27T17:41:46.119Z,42.46
2022-08-27T17:46:49.145Z,42.81
2022-08-27T17:51:56.817Z,42.97
2022-08-27T17:56:58.985Z,43.09
2022-08-27T18:02:00.983Z,43.44
2022-08-27T18:07:02.665Z,44.15
2022-08-27T18:12:05.167Z,44.17
2022-08-27T18:17:07.117Z,44.52
2022-08-27T18:22:09.082Z,44.68
2022-08-27T18:27:10.792Z,44.70
2022-08-27T18:32:12.463Z,45.21
2022-08-27T18:37:14.073Z,45.26
2022-08-27T18:42:16.751Z,45.26
2022-08-27T18:47:18.423Z,45.10
2022-08-27T18:52:22.459Z,45.47
2022-08-27T18:57:24.143Z,45.74
2022-08-27T19:02:27.545Z,46.00
2022-08-27T19:07:29.940Z,46.06
2022-08-27T19:12:31.862Z,46.34
2022-08-27T19:17:36.066Z,46.54
2022-08-27T19:22:37.776Z,46.98
2022-08-27T19:27:39.690Z,46.61
2022-08-27T19:32:41.334Z,47.31
2022-08-27T19:37:48.045Z,47.44
2022-08-27T19:42:54.829Z,47.52
2022-08-27T19:47:56.728Z,47.22
2022-08-27T19:52:58.351Z,47.24
2022-08-27T19:57:59.987Z,47.35
2022-08-27T20:03:01.588Z,47.25
2022-08-27T20:08:04.500Z,47.02
2022-08-27T20:13:06.857Z,47.06
2022-08-27T20:18:08.920Z,47.01
2022-08-27T20:23:10.691Z,46.99
2022-08-27T20:28:37.646Z,47.04
2022-08-27T20:33:34.304Z,46.76
2022-08-27T20:38:36.510Z,46.94
2022-08-27T20:43:38.182Z,46.88
2022-08-27T20:48:39.945Z,46.88
2022-08-27T20:53:41.750Z,46.72
2022-08-27T20:59:02.368Z,46.72
2022-08-27T21:04:05.167Z,46.78
2022-08-27T21:09:06.877Z,46.82
2022-08-27T21:14:08.567Z,46.79
2022-08-27T21:19:11.249Z,46.80
2022-08-27T21:24:13.095Z,46.94
2022-08-27T21:29:16.623Z,46.55
2022-08-27T21:34:18.827Z,47.43
2022-08-27T21:39:20.522Z,47.24
2022-08-27T21:44:22.668Z,47.07
2022-08-27T21:49:24.363Z,47.23
2022-08-27T21:54:26.279Z,47.37
2022-08-27T21:59:30.877Z,47.73
2022-08-27T22:04:32.515Z,47.54
2022-08-27T22:09:34.275Z,47.98
2022-08-27T22:14:36.896Z,48.34
2022-08-27T22:19:38.500Z,48.23
2022-08-27T22:24:40.103Z,48.32
2022-08-27T22:29:41.744Z,48.87
2022-08-27T22:34:43.387Z,48.82
2022-08-27T22:39:45.018Z,49.15
2022-08-27T22:44:46.725Z,48.85
2022-08-27T22:49:48.415Z,49.06
2022-08-27T22:54:55.018Z,49.00
2022-08-27T22:59:58.456Z,48.91
2022-08-27T23:05:03.517Z,48.61
2022-08-27T23:10:10.023Z,48.54
2022-08-27T23:15:12.552Z,48.47
2022-08-27T23:20:14.619Z,48.60
2022-08-27T23:25:36.120Z,48.71
2022-08-27T23:30:38.090Z,48.73
2022-08-27T23:35:43.374Z,48.71
2022-08-27T23:40:45.772Z,48.70
2022-08-27T23:45:47.511Z,49.03
2022-08-27T23:50:49.384Z,48.72
2022-08-27T23:55:50.994Z,48.98
